createdAt,value
2023-01-25T00:00:39.469Z,37.80
2023-01-25T00:03:06.529Z,42.33
2023-01-25T00:05:33.422Z,67.20
2023-01-25T00:08:00.380Z,41.15
2023-01-25T00:10:27.588Z,80.05
2023-01-25T00:12:56.295Z,42.05
2023-01-25T00:15:23.749Z,40.47
2023-01-25T00:17:50.957Z,40.93
2023-01-25T00:20:19.575Z,44.63
2023-01-25T00:22:46.402Z,43.90
2023-01-25T00:25:13.303Z,35.17
2023-01-25T00:27:40.358Z,40.90
2023-01-25T00:30:08.735Z,40.33
2023-01-25T00:32:49.527Z,41.50
2023-01-25T00:35:16.558Z,43.38
2023-01-25T00:37:46.795Z,37.55
2023-01-25T00:40:16.297Z,39.97
2023-01-25T00:42:45.095Z,40.83
2023-01-25T00:45:13.294Z,40.55
2023-01-25T00:47:40.485Z,40.95
2023-01-25T00:50:09.047Z,42.50
2023-01-25T00:52:36.905Z,38.88
2023-01-25T00:55:03.965Z,38.30
2023-01-25T00:57:30.947Z,41.22
2023-01-25T00:59:58.101Z,45.15
2023-01-25T01:02:25.370Z,43.55
2023-01-25T01:04:52.509Z,39.72
2023-01-25T01:07:19.431Z,37.03
2023-01-25T01:09:46.364Z,56.20
2023-01-25T01:12:13.875Z,62.10
2023-01-25T01:14:40.766Z,58.72
2023-01-25T01:17:07.640Z,58.85
2023-01-25T01:19:34.653Z,51.67
2023-01-25T01:22:01.760Z,56.03
2023-01-25T01:24:28.666Z,49.50
2023-01-25T01:26:55.726Z,55.80
2023-01-25T01:29:22.713Z,45.15
2023-01-25T01:31:52.305Z,53.43
2023-01-25T01:34:20.092Z,46.67
2023-01-25T01:36:47.467Z,51.08
2023-01-25T01:39:14.440Z,51.45
2023-01-25T01:41:41.457Z,56.17
2023-01-25T01:44:20.760Z,100.10
2023-01-25T01:46:54.850Z,83.93
2023-01-25T01:49:29.371Z,99.15
2023-01-25T01:52:03.502Z,72.35
2023-01-25T01:54:59.628Z,72.90
2023-01-25T01:57:34.372Z,70.17
2023-01-25T02:00:14.733Z,56.60
2023-01-25T02:02:43.942Z,73.70
2023-01-25T02:05:31.330Z,57.75
2023-01-25T02:07:59.060Z,56.83
2023-01-25T02:10:28.328Z,47.03
2023-01-25T02:12:56.611Z,55.53
2023-01-25T02:15:23.636Z,56.72
2023-01-25T02:17:51.751Z,71.53
2023-01-25T02:20:42.320Z,51.05
2023-01-25T02:23:37.026Z,61.13
2023-01-25T02:26:06.153Z,71.72
2023-01-25T02:28:48.322Z,69.95
2023-01-25T02:31:15.385Z,72.15
2023-01-25T02:33:42.494Z,51.37
2023-01-25T02:36:09.241Z,53.20
2023-01-25T02:38:47.000Z,54.90
2023-01-25T02:41:35.760Z,41.85
2023-01-25T02:44:06.684Z,63.42
2023-01-25T02:46:36.969Z,50.03
2023-01-25T02:49:06.237Z,36.47
2023-01-25T02:51:36.066Z,34.92
2023-01-25T02:54:04.972Z,37.47
2023-01-25T02:56:32.032Z,32.08
2023-01-25T02:58:59.460Z,35.88
2023-01-25T03:01:26.402Z,39.80
2023-01-25T03:03:53.322Z,36.78
2023-01-25T03:06:20.343Z,25.67
2023-01-25T03:08:47.242Z,32.40
2023-01-25T03:11:14.235Z,41.10
2023-01-25T03:13:41.123Z,22.57
2023-01-25T03:16:11.141Z,26.77
2023-01-25T03:18:39.360Z,24.52
2023-01-25T03:21:15.473Z,25.60
2023-01-25T03:23:43.475Z,16.20
2023-01-25T03:26:14.563Z,17.80
2023-01-25T03:28:42.055Z,21.60
2023-01-25T03:31:11.965Z,23.67
2023-01-25T03:33:39.497Z,16.40
2023-01-25T03:36:07.575Z,25.25
2023-01-25T03:38:35.055Z,19.33
2023-01-25T03:41:02.780Z,24.75
2023-01-25T03:43:30.074Z,31.98
2023-01-25T03:45:59.374Z,32.25
2023-01-25T03:48:27.627Z,37.70
2023-01-25T03:50:57.423Z,47.90
2023-01-25T03:53:29.800Z,55.22
2023-01-25T03:56:01.858Z,18.52
2023-01-25T03:58:30.336Z,30.35
2023-01-25T04:00:59.476Z,18.85
2023-01-25T04:03:30.183Z,15.67
2023-01-25T04:05:58.296Z,21.87
2023-01-25T04:08:26.302Z,23.80
2023-01-25T04:10:55.321Z,28.62
2023-01-25T04:13:23.825Z,22.83
2023-01-25T04:15:51.073Z,36.33
2023-01-25T04:18:19.207Z,29.85
2023-01-25T04:20:53.639Z,29.20
2023-01-25T04:23:20.894Z,14.20
2023-01-25T04:25:59.661Z,19.55
2023-01-25T04:28:27.147Z,20.73
2023-01-25T04:30:55.386Z,18.10
2023-01-25T04:33:23.042Z,17.23
2023-01-25T04:35:49.983Z,19.02
2023-01-25T04:38:17.609Z,17.02
2023-01-25T04:40:44.989Z,15.33
2023-01-25T04:43:16.301Z,13.95
2023-01-25T04:45:43.328Z,15.15
2023-01-25T04:48:12.372Z,14.35
2023-01-25T04:50:41.530Z,14.85
2023-01-25T04:53:10.363Z,19.60
2023-01-25T04:55:37.233Z,16.23
2023-01-25T04:58:04.611Z,13.38
2023-01-25T05:00:32.488Z,13.40
2023-01-25T05:02:59.593Z,16.30
2023-01-25T05:05:26.630Z,15.97
2023-01-25T05:07:53.527Z,16.37
2023-01-25T05:10:21.799Z,16.37
2023-01-25T05:12:48.778Z,17.35
2023-01-25T05:15:15.695Z,18.75
2023-01-25T05:17:42.673Z,18.07
2023-01-25T05:20:10.774Z,29.67
2023-01-25T05:22:39.298Z,30.80
2023-01-25T05:25:26.702Z,30.42
2023-01-25T05:27:53.561Z,15.20
2023-01-25T05:30:21.833Z,48.83
2023-01-25T05:32:50.669Z,40.60
2023-01-25T05:35:17.770Z,30.27
2023-01-25T05:37:44.627Z,35.38
2023-01-25T05:40:12.888Z,33.33
2023-01-25T05:42:40.452Z,24.53
2023-01-25T05:45:08.859Z,34.20
2023-01-25T05:47:35.927Z,51.42
2023-01-25T05:50:08.592Z,54.55
2023-01-25T05:52:36.082Z,22.40
2023-01-25T05:55:02.953Z,25.77
2023-01-25T05:57:29.970Z,36.35
2023-01-25T05:59:57.695Z,31.27
2023-01-25T06:02:24.771Z,37.00
2023-01-25T06:04:51.776Z,33.08
2023-01-25T06:07:18.760Z,18.33
2023-01-25T06:09:45.890Z,38.53
2023-01-25T06:12:12.972Z,38.60
2023-01-25T06:14:39.996Z,36.40
2023-01-25T06:17:06.972Z,32.40
2023-01-25T06:19:34.077Z,48.03
2023-01-25T06:22:01.050Z,36.97
2023-01-25T06:24:28.038Z,42.05
2023-01-25T06:26:54.967Z,40.97
2023-01-25T06:29:21.890Z,37.10
2023-01-25T06:31:48.735Z,29.23
2023-01-25T06:34:17.044Z,33.95
2023-01-25T06:36:43.909Z,17.02
2023-01-25T06:39:10.794Z,30.48
2023-01-25T06:41:37.704Z,30.42
2023-01-25T06:44:04.716Z,27.40
2023-01-25T06:46:34.383Z,38.22
2023-01-25T06:49:01.372Z,28.95
2023-01-25T06:51:29.347Z,29.42
2023-01-25T06:53:56.288Z,31.50
2023-01-25T06:56:23.626Z,35.67
2023-01-25T06:58:50.826Z,36.70
2023-01-25T07:01:21.098Z,29.27
2023-01-25T07:03:59.027Z,34.15
2023-01-25T07:06:31.277Z,32.85
2023-01-25T07:09:04.081Z,30.77
2023-01-25T07:11:31.390Z,32.22
2023-01-25T07:13:58.672Z,40.63
2023-01-25T07:16:25.599Z,25.73
2023-01-25T07:18:52.869Z,46.63
2023-01-25T07:21:22.806Z,38.07
2023-01-25T07:23:51.243Z,24.90
2023-01-25T07:26:25.762Z,53.60
2023-01-25T07:28:53.682Z,51.70
2023-01-25T07:31:21.412Z,20.67
2023-01-25T07:33:49.764Z,31.03
2023-01-25T07:36:17.184Z,36.65
2023-01-25T07:38:44.334Z,45.65
2023-01-25T07:41:11.382Z,29.25
2023-01-25T07:43:38.385Z,32.08
2023-01-25T07:46:13.790Z,31.67
2023-01-25T07:48:45.464Z,25.27
2023-01-25T07:51:12.705Z,26.30
2023-01-25T07:53:41.164Z,23.30
2023-01-25T07:56:09.783Z,20.80
2023-01-25T07:58:37.349Z,25.53
2023-01-25T08:01:13.078Z,30.62
2023-01-25T08:03:40.119Z,30.92
2023-01-25T08:06:08.120Z,33.03
2023-01-25T08:08:38.879Z,21.80
2023-01-25T08:11:18.390Z,19.40
2023-01-25T08:13:46.894Z,32.15
2023-01-25T08:16:15.314Z,21.37
2023-01-25T08:18:43.188Z,19.75
2023-01-25T08:21:10.277Z,24.50
2023-01-25T08:23:37.328Z,26.10
2023-01-25T08:26:08.180Z,39.85
2023-01-25T08:28:38.741Z,26.98
2023-01-25T08:31:06.566Z,30.50
2023-01-25T08:33:33.543Z,27.48
2023-01-25T08:36:00.892Z,24.37
2023-01-25T08:38:27.766Z,27.27
2023-01-25T08:40:54.855Z,32.58
2023-01-25T08:43:21.845Z,34.42
2023-01-25T08:45:57.014Z,34.92
2023-01-25T08:48:24.150Z,32.03
2023-01-25T08:50:51.432Z,24.85
2023-01-25T08:53:18.779Z,26.70
2023-01-25T08:55:45.761Z,44.55
2023-01-25T08:58:16.187Z,18.90
2023-01-25T09:00:44.245Z,13.73
2023-01-25T09:03:12.030Z,20.85
2023-01-25T09:05:40.031Z,15.68
2023-01-25T09:08:08.884Z,17.62
2023-01-25T09:10:36.082Z,16.92
2023-01-25T09:13:03.062Z,20.40
2023-01-25T09:15:29.917Z,27.73
2023-01-25T09:17:57.451Z,24.52
2023-01-25T09:20:24.616Z,26.17
2023-01-25T09:22:51.944Z,25.42
2023-01-25T09:25:18.789Z,26.33
2023-01-25T09:27:50.092Z,25.23
2023-01-25T09:30:19.116Z,18.98
2023-01-25T09:32:50.675Z,17.83
2023-01-25T09:35:17.987Z,17.30
2023-01-25T09:37:45.005Z,17.07
2023-01-25T09:40:23.729Z,18.95
2023-01-25T09:42:58.766Z,18.40
2023-01-25T09:45:36.565Z,17.48
2023-01-25T09:48:18.374Z,15.05
2023-01-25T09:51:07.395Z,18.10
2023-01-25T09:53:41.163Z,20.20
2023-01-25T09:56:27.476Z,20.65
2023-01-25T09:58:59.298Z,21.23
2023-01-25T10:01:51.134Z,20.08
2023-01-25T10:04:21.608Z,22.17
2023-01-25T10:07:11.406Z,18.27
2023-01-25T10:09:54.121Z,19.10
2023-01-25T10:12:24.114Z,17.45
2023-01-25T10:14:52.216Z,17.87
2023-01-25T10:17:40.480Z,18.13
2023-01-25T10:20:39.710Z,15.90
2023-01-25T10:23:18.924Z,20.67
2023-01-25T10:25:51.703Z,19.95
2023-01-25T10:28:37.903Z,19.52
2023-01-25T10:31:20.018Z,18.30
2023-01-25T10:33:48.920Z,16.17
2023-01-25T10:36:24.352Z,19.10
2023-01-25T10:38:57.506Z,17.60
2023-01-25T10:41:25.032Z,15.48
2023-01-25T10:44:11.867Z,18.03
2023-01-25T10:46:41.670Z,17.50
2023-01-25T10:50:07.428Z,18.87
2023-01-25T10:52:37.841Z,18.08
2023-01-25T10:55:15.664Z,16.50
2023-01-25T10:57:44.831Z,17.77
2023-01-25T11:00:23.155Z,19.52
2023-01-25T11:02:50.077Z,19.58
2023-01-25T11:05:19.678Z,15.40
2023-01-25T11:07:47.219Z,16.62
2023-01-25T11:10:36.337Z,17.13
2023-01-25T11:13:15.547Z,18.80
2023-01-25T11:15:45.951Z,17.62
2023-01-25T11:18:29.493Z,19.55
2023-01-25T11:21:22.230Z,16.73
2023-01-25T11:24:07.023Z,15.63
2023-01-25T11:26:37.622Z,15.98
2023-01-25T11:29:15.361Z,19.80
2023-01-25T11:35:27.653Z,16.27
2023-01-25T11:38:16.607Z,16.83
2023-01-25T11:40:57.817Z,18.30
2023-01-25T11:43:33.340Z,18.17
2023-01-25T11:47:08.206Z,16.77
2023-01-25T11:50:03.975Z,18.48
2023-01-25T11:52:53.426Z,16.77
2023-01-25T11:55:31.302Z,15.82
2023-01-25T11:58:22.732Z,16.20
2023-01-25T12:07:40.893Z,13.82
2023-01-25T12:10:36.768Z,17.02
2023-01-25T12:13:06.246Z,14.75
2023-01-25T12:16:05.288Z,14.38
2023-01-25T12:19:04.431Z,18.00
2023-01-25T12:21:54.198Z,17.30
2023-01-25T12:24:34.982Z,15.20
2023-01-25T12:27:11.160Z,18.15
2023-01-25T12:29:48.667Z,15.20
2023-01-25T12:32:28.518Z,13.20
2023-01-25T12:35:37.115Z,15.52
2023-01-25T12:38:10.470Z,15.93
2023-01-25T12:40:58.541Z,13.20
2023-01-25T12:43:34.876Z,10.25
2023-01-25T12:46:10.266Z,13.10
2023-01-25T12:48:43.350Z,14.77
2023-01-25T12:51:11.039Z,15.45
2023-01-25T12:53:41.736Z,12.15
2023-01-25T12:56:13.693Z,10.85
2023-01-25T12:59:13.723Z,12.00
2023-01-25T13:01:40.624Z,9.77
2023-01-25T13:04:20.325Z,11.27
2023-01-25T13:07:06.104Z,12.02
2023-01-25T13:09:59.754Z,14.30
2023-01-25T13:12:27.576Z,11.87
2023-01-25T13:14:54.859Z,13.73
2023-01-25T13:17:40.057Z,13.35
2023-01-25T13:20:41.370Z,12.30
2023-01-25T13:23:26.994Z,11.10
2023-01-25T13:26:22.495Z,13.30
2023-01-25T13:28:58.233Z,15.50
2023-01-25T13:31:51.515Z,10.30
2023-01-25T13:34:40.404Z,13.05
2023-01-25T13:37:23.143Z,10.52
2023-01-25T13:39:54.676Z,9.80
2023-01-25T13:42:36.390Z,9.98
2023-01-25T13:45:14.553Z,11.98
2023-01-25T13:47:58.620Z,12.85
2023-01-25T13:50:29.384Z,12.13
2023-01-25T13:53:19.030Z,11.20
2023-01-25T13:55:49.074Z,10.60
2023-01-25T13:58:20.407Z,10.57
2023-01-25T14:00:55.146Z,10.93
2023-01-25T14:03:29.226Z,11.52
2023-01-25T14:05:59.344Z,9.60
2023-01-25T14:08:28.226Z,10.07
2023-01-25T14:10:57.012Z,10.15
2023-01-25T14:13:24.773Z,11.73
2023-01-25T14:16:04.522Z,14.82
2023-01-25T14:18:38.279Z,13.40
2023-01-25T14:21:25.471Z,14.52
2023-01-25T14:23:52.796Z,11.85
2023-01-25T14:26:23.492Z,11.23
2023-01-25T14:29:01.207Z,13.05
2023-01-25T14:31:35.351Z,11.40
2023-01-25T14:34:04.308Z,13.00
2023-01-25T14:36:34.492Z,12.02
2023-01-25T14:39:04.457Z,13.15
2023-01-25T14:41:59.194Z,10.85
2023-01-25T14:44:29.057Z,10.37
2023-01-25T14:47:33.302Z,13.18
2023-01-25T14:50:29.130Z,11.10
2023-01-25T14:52:57.960Z,15.02
2023-01-25T14:55:26.191Z,13.13
2023-01-25T14:57:58.616Z,11.53
2023-01-25T15:00:32.125Z,14.15
2023-01-25T15:03:05.391Z,11.07
2023-01-25T15:05:35.140Z,11.60
2023-01-25T15:08:07.775Z,13.00
2023-01-25T15:10:36.950Z,13.17
2023-01-25T15:13:14.912Z,12.82
2023-01-25T15:15:54.190Z,12.10
2023-01-25T15:19:00.209Z,13.70
2023-01-25T15:21:28.855Z,11.63
2023-01-25T15:23:58.200Z,13.67
2023-01-25T15:26:30.126Z,12.85
2023-01-25T15:28:59.832Z,15.02
2023-01-25T15:31:30.169Z,13.02
2023-01-25T15:33:57.960Z,13.18
2023-01-25T15:36:24.824Z,14.50
2023-01-25T15:38:52.116Z,17.05
2023-01-25T15:41:19.218Z,12.35
2023-01-25T15:43:46.802Z,14.57
2023-01-25T15:46:26.681Z,12.57
2023-01-25T15:48:54.198Z,12.10
2023-01-25T15:51:22.408Z,14.80
2023-01-25T15:53:49.721Z,15.30
2023-01-25T15:56:20.475Z,13.52
2023-01-25T15:58:52.108Z,13.77
2023-01-25T16:01:19.964Z,14.93
2023-01-25T16:03:47.437Z,24.70
2023-01-25T16:06:42.021Z,17.60
2023-01-25T16:09:20.670Z,15.25
2023-01-25T16:11:51.477Z,20.48
2023-01-25T16:14:19.128Z,21.37
2023-01-25T16:16:49.910Z,18.67
2023-01-25T16:19:19.894Z,19.70
2023-01-25T16:21:47.578Z,18.27
2023-01-25T16:24:16.088Z,20.42
2023-01-25T16:26:52.971Z,16.10
2023-01-25T16:29:23.111Z,17.08
2023-01-25T16:31:52.395Z,14.25
2023-01-25T16:34:22.438Z,15.45
2023-01-25T16:36:50.785Z,18.65
2023-01-25T16:39:20.912Z,19.90
2023-01-25T16:41:49.414Z,22.65
2023-01-25T16:44:18.444Z,23.10
2023-01-25T16:46:50.799Z,22.17
2023-01-25T16:49:21.814Z,19.75
2023-01-25T16:51:50.553Z,22.77
2023-01-25T16:54:20.090Z,21.17
2023-01-25T16:56:51.043Z,20.83
2023-01-25T16:59:20.673Z,24.90
2023-01-25T17:01:48.683Z,22.75
2023-01-25T17:04:17.732Z,26.13
2023-01-25T17:06:49.833Z,25.58
2023-01-25T17:09:24.907Z,27.00
2023-01-25T17:11:54.285Z,30.60
2023-01-25T17:14:22.566Z,31.77
2023-01-25T17:16:52.147Z,31.03
2023-01-25T17:19:21.700Z,36.80
2023-01-25T17:21:49.390Z,38.25
2023-01-25T17:24:21.401Z,44.92
2023-01-25T17:26:50.942Z,47.75
2023-01-25T17:29:21.807Z,32.93
2023-01-25T17:31:49.854Z,31.73
2023-01-25T17:34:22.345Z,33.10
2023-01-25T17:36:52.933Z,33.03
2023-01-25T17:39:21.644Z,31.60
2023-01-25T17:41:51.566Z,29.53
2023-01-25T17:44:27.782Z,30.20
2023-01-25T17:46:55.885Z,26.10
2023-01-25T17:49:25.118Z,27.02
2023-01-25T17:51:57.459Z,27.23
2023-01-25T17:54:25.724Z,28.27
2023-01-25T17:56:55.606Z,25.37
2023-01-25T17:59:24.087Z,27.42
2023-01-25T18:01:52.815Z,29.00
2023-01-25T18:07:05.894Z,28.70
2023-01-25T18:09:36.251Z,25.15
2023-01-25T18:12:07.514Z,26.33
2023-01-25T18:14:35.838Z,28.00
2023-01-25T18:17:06.187Z,29.10
2023-01-25T18:19:35.783Z,28.63
2023-01-25T18:22:05.397Z,34.40
2023-01-25T18:24:41.795Z,33.53
2023-01-25T18:27:22.814Z,33.17
2023-01-25T18:30:24.175Z,28.83
2023-01-25T18:33:02.715Z,24.50
2023-01-25T18:35:36.315Z,27.52
2023-01-25T18:38:05.433Z,26.23
2023-01-25T18:40:36.975Z,25.75
2023-01-25T18:43:05.878Z,29.23
2023-01-25T18:45:38.933Z,28.53
2023-01-25T18:48:07.858Z,29.75
2023-01-25T18:50:43.079Z,35.17
2023-01-25T18:53:12.783Z,40.42
2023-01-25T18:55:43.044Z,37.38
2023-01-25T18:58:13.222Z,30.93
2023-01-25T19:00:44.432Z,28.50
2023-01-25T19:03:15.315Z,29.27
2023-01-25T19:05:44.386Z,33.42
2023-01-25T19:08:21.785Z,37.05
2023-01-25T19:10:52.784Z,30.27
2023-01-25T19:13:24.273Z,26.67
2023-01-25T19:16:04.282Z,24.50
2023-01-25T19:18:36.670Z,24.02
2023-01-25T19:21:11.751Z,23.48
2023-01-25T19:23:41.272Z,26.63
2023-01-25T19:26:14.920Z,25.55
2023-01-25T19:28:44.428Z,25.05
2023-01-25T19:31:24.994Z,25.17
2023-01-25T19:34:03.809Z,25.27
2023-01-25T19:36:39.585Z,24.67
2023-01-25T19:39:19.140Z,26.20
2023-01-25T19:42:02.270Z,27.75
2023-01-25T19:44:42.478Z,24.48
2023-01-25T19:47:19.617Z,24.55
2023-01-25T19:49:51.061Z,25.33
2023-01-25T19:52:24.924Z,28.10
2023-01-25T19:54:58.062Z,25.83
2023-01-25T19:57:26.879Z,22.92
2023-01-25T19:59:56.507Z,23.02
2023-01-25T20:02:27.153Z,21.23
2023-01-25T20:04:57.198Z,22.30
2023-01-25T20:07:27.973Z,24.50
2023-01-25T20:09:58.406Z,20.95
2023-01-25T20:12:26.833Z,22.27
2023-01-25T20:14:57.171Z,26.63
2023-01-25T20:17:30.027Z,21.62
2023-01-25T20:20:07.805Z,24.87
2023-01-25T20:22:40.100Z,19.73
2023-01-25T20:25:10.990Z,23.48
2023-01-25T20:27:39.675Z,26.00
2023-01-25T20:30:14.487Z,22.58
2023-01-25T20:32:44.636Z,26.35
2023-01-25T20:35:13.372Z,24.15
2023-01-25T20:37:41.975Z,26.73
2023-01-25T20:40:13.308Z,26.47
2023-01-25T20:42:45.138Z,29.52
2023-01-25T20:45:22.958Z,27.20
2023-01-25T20:47:52.748Z,22.52
2023-01-25T20:50:29.818Z,28.77
2023-01-25T20:52:59.708Z,24.60
2023-01-25T20:55:29.261Z,27.37
2023-01-25T20:58:01.680Z,22.37
2023-01-25T21:00:31.796Z,24.45
2023-01-25T21:03:11.321Z,29.42
2023-01-25T21:05:40.298Z,25.23
2023-01-25T21:08:09.726Z,32.35
2023-01-25T21:10:41.300Z,33.65
2023-01-25T21:13:10.441Z,29.40
2023-01-25T21:15:41.262Z,31.67
2023-01-25T21:18:10.391Z,36.50
2023-01-25T21:20:38.820Z,30.80
2023-01-25T21:23:08.009Z,34.55
2023-01-25T21:25:39.567Z,34.13
2023-01-25T21:28:08.707Z,36.38
2023-01-25T21:30:38.733Z,34.67
2023-01-25T21:33:09.423Z,33.53
2023-01-25T21:35:38.221Z,34.83
2023-01-25T21:38:10.172Z,35.22
2023-01-25T21:40:40.131Z,31.92
2023-01-25T21:43:08.047Z,32.30
2023-01-25T21:45:57.686Z,34.28
2023-01-25T21:48:43.817Z,32.05
2023-01-25T21:51:31.494Z,28.77
2023-01-25T21:53:59.482Z,37.00
2023-01-25T21:56:26.599Z,36.33
2023-01-25T21:58:53.722Z,32.70
2023-01-25T22:01:22.557Z,37.60
2023-01-25T22:03:51.093Z,36.67
2023-01-25T22:06:18.808Z,33.55
2023-01-25T22:08:47.259Z,33.93
2023-01-25T22:11:15.243Z,33.22
2023-01-25T22:13:42.620Z,33.33
2023-01-25T22:16:11.723Z,32.35
2023-01-25T22:18:41.794Z,31.20
2023-01-25T22:21:16.820Z,32.07
2023-01-25T22:23:44.741Z,28.60
2023-01-25T22:26:19.247Z,31.15
2023-01-25T22:28:51.415Z,28.87
2023-01-25T22:31:25.389Z,31.55
2023-01-25T22:33:54.454Z,30.83
2023-01-25T22:36:23.527Z,31.17
2023-01-25T22:38:53.601Z,33.58
2023-01-25T22:41:25.281Z,32.42
2023-01-25T22:43:53.479Z,27.33
2023-01-25T22:46:24.422Z,29.43
2023-01-25T22:48:51.717Z,30.23
2023-01-25T22:51:23.984Z,30.45
2023-01-25T22:53:52.937Z,32.88
2023-01-25T22:56:23.731Z,29.27
2023-01-25T22:58:51.543Z,29.77
2023-01-25T23:01:21.914Z,38.30
2023-01-25T23:03:49.697Z,31.30
2023-01-25T23:06:20.124Z,29.48
2023-01-25T23:08:47.978Z,26.73
2023-01-25T23:11:18.061Z,28.93
2023-01-25T23:14:05.826Z,27.37
2023-01-25T23:16:34.785Z,30.50
2023-01-25T23:19:02.723Z,29.85
2023-01-25T23:21:30.488Z,29.58
2023-01-25T23:24:05.105Z,28.93
2023-01-25T23:26:38.088Z,33.67
2023-01-25T23:29:09.505Z,28.17
2023-01-25T23:31:37.342Z,28.33
2023-01-25T23:34:06.960Z,32.67
2023-01-25T23:36:42.277Z,32.73
2023-01-25T23:39:15.409Z,30.45
2023-01-25T23:41:42.400Z,29.02
2023-01-25T23:44:10.228Z,30.15
2023-01-25T23:46:37.610Z,33.92
2023-01-25T23:49:05.731Z,39.43
2023-01-25T23:51:32.733Z,33.40
2023-01-25T23:54:00.665Z,32.58
2023-01-25T23:56:28.492Z,30.00
2023-01-25T23:58:55.548Z,34.28
